Time;durP1;ratioP1;P1;durP2;ratioP2;P2;SDS_P1;SDS_P2;PMS_P1;PMS_P2;Temp;Humidity;BMP_temperature;BMP_pressure;BME280_temperature;BME280_humidity;BME280_pressure;Samples;Min_cycle;Max_cycle;Signal;HPM_P1;HPM_P2
2021/12/16 00:36:40;;;;;;;31.17;13.77;;;;;;;-1.07;100.00;95668.41;10386822;28;20090;-70
2021/12/16 00:41:43;;;;;;;26.50;13.02;;;;;;;-1.24;100.00;95672.19;10430173;28;20120;-78
2021/12/16 00:57:17;;;;;;;28.45;12.65;;;;;;;-1.22;100.00;95678.09;10406805;28;20040;-70
2021/12/16 01:08:22;;;;;;;34.15;14.25;;;;;;;-1.27;100.00;95669.88;10409956;28;20455;-74
2021/12/16 01:34:46;;;;;;;32.92;12.90;;;;;;;-1.18;100.00;95654.84;10371654;28;20061;-73
2021/12/16 01:40:15;;;;;;;25.33;12.07;;;;;;;-1.18;100.00;95649.56;10403705;28;20029;-71
2021/12/16 01:50:39;;;;;;;31.00;12.48;;;;;;;-1.23;100.00;95642.16;10444954;28;20021;-70
2021/12/16 01:55:48;;;;;;;33.70;12.65;;;;;;;-1.21;100.00;95634.91;10446871;28;20160;-71
2021/12/16 02:01:17;;;;;;;25.73;11.43;;;;;;;-1.27;100.00;95644.34;10426079;28;20441;-70
2021/12/16 02:37:37;;;;;;;32.03;12.30;;;;;;;-0.83;100.00;95647.28;10403004;28;20025;-70
2021/12/16 02:42:51;;;;;;;22.02;9.50;;;;;;;-0.81;100.00;95645.28;10385352;28;20048;-70
2021/12/16 02:53:10;;;;;;;26.50;11.82;;;;;;;-0.52;100.00;95645.31;10403068;28;20104;-74
2021/12/16 02:58:11;;;;;;;22.55;11.45;;;;;;;-0.46;100.00;95648.22;10401087;28;20025;-72
2021/12/16 03:03:12;;;;;;;24.45;13.10;;;;;;;-0.50;100.00;95641.66;10422341;28;20143;-72
2021/12/16 03:08:12;;;;;;;28.38;13.02;;;;;;;-0.50;100.00;95639.84;10441560;28;20138;-69
2021/12/16 03:13:33;;;;;;;26.00;11.30;;;;;;;-0.41;100.00;95635.31;10442466;28;20521;-74
2021/12/16 03:18:47;;;;;;;24.67;12.45;;;;;;;-0.52;100.00;95634.75;10441122;28;20036;-69
2021/12/16 03:24:06;;;;;;;24.33;10.75;;;;;;;-0.59;100.00;95641.75;10441041;28;20069;-73
2021/12/16 03:30:03;;;;;;;26.05;10.25;;;;;;;-0.54;100.00;95647.31;10441094;28;20031;-73
2021/12/16 03:39:39;;;;;;;22.17;10.45;;;;;;;-0.42;100.00;95657.41;10401281;28;20501;-71
2021/12/16 03:44:53;;;;;;;22.50;12.38;;;;;;;-0.32;100.00;95647.44;10415995;28;20025;-74
2021/12/16 03:49:55;;;;;;;25.85;12.38;;;;;;;-0.25;100.00;95648.34;10422033;28;20021;-69
2021/12/16 03:54:56;;;;;;;24.77;11.00;;;;;;;-0.11;100.00;95640.56;10439730;28;20037;-70
2021/12/16 03:59:57;;;;;;;22.73;10.60;;;;;;;0.00;100.00;95640.13;10440351;28;20468;-73
2021/12/16 04:04:59;;;;;;;23.25;11.63;;;;;;;0.07;100.00;95643.66;10398723;28;20029;-70
2021/12/16 04:10:00;;;;;;;19.77;10.95;;;;;;;0.16;100.00;95631.16;10400049;28;20022;-71
2021/12/16 04:15:05;;;;;;;24.38;11.10;;;;;;;0.17;100.00;95638.09;10444327;28;20033;-73
2021/12/16 04:20:09;;;;;;;22.45;9.85;;;;;;;-0.02;100.00;95640.28;10440071;28;20403;-71
2021/12/16 04:25:17;;;;;;;25.90;12.13;;;;;;;0.06;100.00;95626.16;10390189;28;20063;-72
2021/12/16 04:30:18;;;;;;;23.73;12.13;;;;;;;0.12;100.00;95628.03;10446977;28;20035;-76
2021/12/16 04:35:19;;;;;;;25.23;12.68;;;;;;;0.27;100.00;95616.63;10447111;28;20025;-73
2021/12/16 04:40:20;;;;;;;22.27;11.25;;;;;;;0.28;100.00;95618.25;10405990;28;20029;-71
2021/12/16 04:45:20;;;;;;;20.65;10.43;;;;;;;0.31;100.00;95615.25;10407034;28;20034;-72
2021/12/16 04:50:23;;;;;;;25.98;11.50;;;;;;;0.29;100.00;95607.50;10405169;28;20112;-71
2021/12/16 04:55:23;;;;;;;22.67;10.55;;;;;;;0.17;100.00;95617.75;10410197;28;20048;-72
2021/12/16 05:00:25;;;;;;;22.33;10.15;;;;;;;0.16;100.00;95617.94;10438795;28;20029;-72
2021/12/16 05:05:26;;;;;;;24.23;9.98;;;;;;;0.16;100.00;95620.56;10446184;28;20033;-69
2021/12/16 05:10:27;;;;;;;20.30;10.18;;;;;;;0.02;100.00;95611.66;10446911;28;20017;-70
2021/12/16 05:15:32;;;;;;;24.25;10.90;;;;;;;-0.09;100.00;95615.59;10426350;28;20120;-73
2021/12/16 05:20:39;;;;;;;21.05;11.65;;;;;;;-0.13;100.00;95624.09;10420693;28;20271;-69
2021/12/16 05:30:41;;;;;;;25.00;12.80;;;;;;;-0.06;100.00;95615.22;10404683;28;20087;-73
2021/12/16 05:35:42;;;;;;;20.85;10.15;;;;;;;0.10;100.00;95613.41;10405086;28;20033;-70
2021/12/16 05:40:43;;;;;;;24.48;10.52;;;;;;;0.09;100.00;95612.56;10428209;28;20035;-75
2021/12/16 05:45:46;;;;;;;22.95;10.55;;;;;;;0.11;100.00;95617.66;10444290;28;20033;-71
2021/12/16 05:50:53;;;;;;;23.20;10.65;;;;;;;0.21;100.00;95614.72;10444147;28;20075;-77
2021/12/16 05:55:54;;;;;;;23.47;11.13;;;;;;;0.06;100.00;95610.28;10442167;28;20059;-71
2021/12/16 06:01:00;;;;;;;21.15;11.02;;;;;;;0.23;100.00;95615.38;10443429;28;20031;-74
2021/12/16 06:06:01;;;;;;;24.80;11.82;;;;;;;0.28;100.00;95610.31;10403074;28;20451;-70
2021/12/16 06:31:29;;;;;;;18.48;10.93;;;;;;;0.37;100.00;95614.50;10402297;28;20120;-70
2021/12/16 06:36:29;;;;;;;19.42;10.60;;;;;;;0.47;100.00;95608.91;10400368;28;20033;-69
2021/12/16 06:41:34;;;;;;;21.40;10.45;;;;;;;0.50;100.00;95616.44;10402187;28;20108;-70
2021/12/16 06:46:38;;;;;;;17.25;8.82;;;;;;;0.43;100.00;95608.47;10404334;28;20047;-70
2021/12/16 06:51:51;;;;;;;18.73;9.65;;;;;;;0.45;100.00;95613.56;10416792;28;20167;-73
2021/12/16 07:07:04;;;;;;;16.52;10.73;;;;;;;0.64;100.00;95615.59;10401250;28;20060;-75
2021/12/16 07:12:07;;;;;;;21.40;11.27;;;;;;;0.77;100.00;95612.25;10416246;28;20479;-69
2021/12/16 07:17:11;;;;;;;15.25;8.55;;;;;;;0.58;100.00;95618.16;10401152;28;20025;-75
2021/12/16 07:22:13;;;;;;;14.98;8.73;;;;;;;0.54;100.00;95616.91;10402185;28;20034;-72
2021/12/16 07:27:14;;;;;;;14.23;7.25;;;;;;;0.38;100.00;95623.25;10399518;28;20054;-72
2021/12/16 07:32:15;;;;;;;13.63;7.18;;;;;;;0.36;100.00;95626.06;10399701;28;20499;-71
2021/12/16 07:37:16;;;;;;;15.85;8.20;;;;;;;0.66;100.00;95616.22;10399708;28;20037;-74
2021/12/16 07:42:25;;;;;;;14.57;8.70;;;;;;;0.48;100.00;95616.63;10400654;28;20030;-70
2021/12/16 07:47:25;;;;;;;17.98;7.63;;;;;;;0.41;100.00;95625.53;10416452;28;20090;-73
2021/12/16 07:52:26;;;;;;;9.48;6.38;;;;;;;0.64;100.00;95620.88;10427657;28;20460;-70
2021/12/16 07:57:27;;;;;;;15.00;6.40;;;;;;;0.76;100.00;95625.66;10448598;28;20516;-75
2021/12/16 08:02:28;;;;;;;15.43;8.77;;;;;;;1.01;100.00;95629.53;10448588;28;20040;-73
2021/12/16 08:07:30;;;;;;;13.48;6.18;;;;;;;0.83;100.00;95623.91;10450373;28;20041;-71
2021/12/16 08:12:31;;;;;;;11.93;5.32;;;;;;;0.93;100.00;95637.63;10450111;28;20128;-74
2021/12/16 08:17:32;;;;;;;10.25;6.10;;;;;;;1.02;100.00;95633.84;10448850;28;20036;-71
2021/12/16 08:22:33;;;;;;;10.43;5.63;;;;;;;1.28;100.00;95621.00;10446494;28;20033;-73
2021/12/16 08:27:37;;;;;;;13.45;6.75;;;;;;;1.63;100.00;95623.66;10448097;28;20045;-74
2021/12/16 08:32:39;;;;;;;15.82;6.70;;;;;;;1.97;100.00;95616.72;10446816;28;20078;-70
2021/12/16 08:37:40;;;;;;;11.57;6.72;;;;;;;2.08;100.00;95615.31;10445926;28;20558;-71
2021/12/16 08:42:41;;;;;;;11.60;6.53;;;;;;;1.97;100.00;95625.47;10429839;28;20071;-72
2021/12/16 08:47:43;;;;;;;19.40;8.60;;;;;;;2.07;100.00;95608.41;10429512;28;20098;-72
2021/12/16 08:52:44;;;;;;;9.65;5.90;;;;;;;2.33;100.00;95605.84;10447550;28;20025;-77
2021/12/16 08:57:44;;;;;;;19.30;6.18;;;;;;;2.53;100.00;95610.38;10429654;28;20025;-72
2021/12/16 09:02:45;;;;;;;15.20;6.85;;;;;;;2.50;100.00;95605.47;10445737;28;20121;-73
2021/12/16 09:07:48;;;;;;;11.02;6.90;;;;;;;2.51;100.00;95597.31;10445351;28;20032;-72
2021/12/16 09:17:54;;;;;;;18.45;8.10;;;;;;;2.58;100.00;95591.19;10446239;28;20021;-72
2021/12/16 09:22:55;;;;;;;15.65;6.72;;;;;;;2.55;100.00;95593.25;10445230;28;20541;-73
2021/12/16 09:27:56;;;;;;;20.10;7.10;;;;;;;2.56;100.00;95583.44;10444589;28;20060;-72
2021/12/16 09:32:59;;;;;;;15.93;8.40;;;;;;;2.73;100.00;95589.16;10444145;28;20577;-72
2021/12/16 09:38:01;;;;;;;13.48;6.43;;;;;;;2.55;100.00;95582.63;10444296;28;20064;-70
2021/12/16 09:43:03;;;;;;;11.35;7.25;;;;;;;2.54;100.00;95573.03;10444012;28;20029;-72
2021/12/16 09:48:04;;;;;;;9.05;5.50;;;;;;;2.61;100.00;95570.38;10427470;28;20021;-71
2021/12/16 09:53:05;;;;;;;14.50;7.65;;;;;;;2.56;100.00;95572.81;10445574;28;20021;-70
2021/12/16 09:58:06;;;;;;;8.55;4.72;;;;;;;2.54;100.00;95565.06;10443497;28;20513;-72
2021/12/16 10:03:06;;;;;;;12.95;6.13;;;;;;;2.44;100.00;95569.13;10427098;28;20045;-70
2021/12/16 10:08:09;;;;;;;14.25;7.60;;;;;;;2.40;100.00;95560.75;10443408;28;20036;-73
2021/12/16 10:13:11;;;;;;;10.00;6.15;;;;;;;2.31;100.00;95559.31;10443234;28;20119;-70
2021/12/16 10:18:17;;;;;;;9.55;6.35;;;;;;;2.48;100.00;95547.28;10414603;28;20116;-72
2021/12/16 10:23:34;;;;;;;11.68;6.15;;;;;;;2.55;100.00;95536.69;10403066;28;20057;-71
2021/12/16 10:28:40;;;;;;;11.25;6.15;;;;;;;2.73;100.00;95522.81;10424652;28;20071;-71
2021/12/16 10:33:49;;;;;;;11.40;6.03;;;;;;;3.29;100.00;95516.19;10442229;28;20029;-71
2021/12/16 10:39:02;;;;;;;12.48;5.53;;;;;;;4.19;100.00;95512.00;10441953;28;20099;-71
2021/12/16 10:44:14;;;;;;;14.63;6.65;;;;;;;4.81;100.00;95498.03;10443243;28;20048;-71
2021/12/16 10:49:18;;;;;;;12.70;6.30;;;;;;;4.31;100.00;95493.47;10425709;28;20035;-70
2021/12/16 10:54:57;;;;;;;14.25;7.50;;;;;;;4.07;100.00;95503.84;10441740;28;20126;-76
2021/12/16 10:59:59;;;;;;;9.73;5.40;;;;;;;3.87;100.00;95496.00;10397367;28;20098;-70
2021/12/16 11:05:09;;;;;;;13.05;6.38;;;;;;;3.49;100.00;95497.56;10442074;28;20041;-74
2021/12/16 11:10:15;;;;;;;6.38;5.13;;;;;;;3.30;100.00;95495.78;10440287;28;20140;-71
2021/12/16 11:15:37;;;;;;;12.27;6.75;;;;;;;3.29;100.00;95497.59;10441004;28;20029;-74
2021/12/16 11:20:46;;;;;;;9.93;6.53;;;;;;;3.19;100.00;95491.91;10439910;28;20080;-74
2021/12/16 11:25:46;;;;;;;;;;;;;;;3.23;100.00;95495.78;10442214;28;20055;-74
2021/12/16 11:30:59;;;;;;;12.98;5.05;;;;;;;3.32;100.00;95489.25;10438966;28;19919;-74
2021/12/16 11:36:00;;;;;;;10.23;5.55;;;;;;;3.57;100.00;95488.53;10439945;28;20037;-71
2021/12/16 11:41:09;;;;;;;11.82;5.45;;;;;;;3.34;100.00;95500.47;10440078;28;20033;-71
2021/12/16 11:46:27;;;;;;;9.65;5.57;;;;;;;2.94;100.00;95500.53;10440933;28;20044;-71
2021/12/16 11:51:37;;;;;;;7.90;5.33;;;;;;;2.85;100.00;95496.47;10439239;28;20723;-71
2021/12/16 11:56:43;;;;;;;14.00;5.25;;;;;;;2.79;100.00;95484.00;10423702;28;20071;-69
2021/12/16 12:01:43;;;;;;;10.15;6.00;;;;;;;2.73;100.00;95483.00;10424493;28;20474;-79
2021/12/16 12:06:44;;;;;;;11.35;6.03;;;;;;;2.61;100.00;95479.31;10441257;28;20028;-78
2021/12/16 12:11:46;;;;;;;13.07;5.00;;;;;;;2.48;100.00;95475.63;10422593;28;20037;-73
2021/12/16 12:16:49;;;;;;;17.02;6.43;;;;;;;2.46;100.00;95487.50;10439578;28;20087;-76
2021/12/16 12:21:58;;;;;;;9.95;5.00;;;;;;;2.33;100.00;95491.78;10439211;28;20033;-77
2021/12/16 12:27:02;;;;;;;9.88;5.60;;;;;;;2.19;100.00;95482.16;10440526;28;20076;-74
2021/12/16 12:32:05;;;;;;;13.13;6.68;;;;;;;2.03;100.00;95493.97;10439334;28;20113;-74
2021/12/16 12:37:09;;;;;;;10.63;5.72;;;;;;;1.96;100.00;95488.63;10444861;28;20051;-72
2021/12/16 12:42:12;;;;;;;12.52;6.00;;;;;;;2.04;100.00;95495.59;10447144;28;20040;-72
2021/12/16 12:47:22;;;;;;;17.98;6.28;;;;;;;2.15;100.00;95488.88;10430227;28;20036;-75
2021/12/16 12:52:23;;;;;;;16.35;6.30;;;;;;;2.08;100.00;95490.69;10445986;28;20104;-75
2021/12/16 12:57:29;;;;;;;16.52;6.07;;;;;;;2.01;100.00;95474.78;10430473;28;20028;-72
2021/12/16 13:02:36;;;;;;;14.57;6.50;;;;;;;2.02;100.00;95473.75;10404214;28;20051;-75
2021/12/16 13:07:43;;;;;;;12.75;6.13;;;;;;;2.18;100.00;95480.53;10388021;28;20029;-71
2021/12/16 13:13:14;;;;;;;16.83;8.00;;;;;;;2.07;100.00;95494.38;10431609;23;20064;-75
2021/12/16 13:24:01;;;;;;;15.32;7.97;;;;;;;2.10;100.00;95492.13;10444792;28;20032;-74
2021/12/16 13:29:14;;;;;;;18.63;9.70;;;;;;;2.16;100.00;95487.84;10444527;28;20082;-72
2021/12/16 13:34:37;;;;;;;16.67;7.88;;;;;;;2.15;100.00;95486.22;10444035;28;20478;-73
2021/12/16 13:39:44;;;;;;;16.42;7.65;;;;;;;2.21;100.00;95488.88;10444440;28;20036;-70
2021/12/16 13:44:50;;;;;;;17.13;7.88;;;;;;;2.18;100.00;95484.00;10443743;28;20029;-71
2021/12/16 14:07:27;;;;;;;22.52;9.20;;;;;;;1.61;100.00;95504.63;10420177;28;20036;-72
2021/12/16 14:13:24;;;;;;;14.63;7.93;;;;;;;1.68;100.00;95512.63;10440684;28;20045;-69
2021/12/16 14:17:50;;;;;;;25.13;9.55;;;;;;;1.57;100.00;95515.84;10443814;28;20403;-77
2021/12/16 14:23:02;;;;;;;19.35;7.90;;;;;;;1.63;100.00;95520.31;10442174;28;20029;-69
2021/12/16 14:44:07;;;;;;;16.35;9.07;;;;;;;1.58;100.00;95509.50;10442624;28;20025;-70
2021/12/16 14:49:07;;;;;;;18.20;8.07;;;;;;;1.66;100.00;95517.28;10441366;28;20163;-69
2021/12/16 14:54:08;;;;;;;17.17;9.38;;;;;;;1.72;100.00;95527.09;10440377;28;20070;-71
2021/12/16 14:59:13;;;;;;;19.75;9.15;;;;;;;1.71;100.00;95525.47;10440655;28;20024;-73
2021/12/16 15:04:20;;;;;;;20.02;9.00;;;;;;;1.58;100.00;95515.63;10440817;28;20115;-65
2021/12/16 15:09:28;;;;;;;20.20;9.13;;;;;;;1.59;100.00;95505.84;10440868;28;20558;-73
2021/12/16 15:36:38;;;;;;;23.00;9.77;;;;;;;1.39;100.00;95526.94;10441445;28;20032;-70
2021/12/16 15:46:59;;;;;;;23.33;10.82;;;;;;;1.51;100.00;95542.09;10441345;28;20029;-70
2021/12/16 15:52:01;;;;;;;25.48;11.07;;;;;;;1.25;100.00;95547.25;10439422;28;20021;-68
2021/12/16 15:57:04;;;;;;;19.38;9.95;;;;;;;0.91;100.00;95548.81;10423687;28;20119;-71
2021/12/16 16:02:04;;;;;;;21.98;10.75;;;;;;;1.19;100.00;95544.34;10423041;28;20029;-72
2021/12/16 16:07:08;;;;;;;21.85;10.80;;;;;;;0.94;100.00;95545.81;10440618;28;20024;-75
2021/12/16 16:12:15;;;;;;;20.63;9.75;;;;;;;0.93;100.00;95554.75;10428073;28;20094;-69
2021/12/16 16:17:19;;;;;;;25.70;10.70;;;;;;;0.97;100.00;95548.06;10448364;28;20033;-70
2021/12/16 16:22:20;;;;;;;21.63;9.05;;;;;;;1.00;100.00;95558.28;10446078;28;20215;-69
2021/12/16 16:27:29;;;;;;;24.85;11.55;;;;;;;1.14;100.00;95562.63;10448297;28;20029;-69
2021/12/16 16:33:08;;;;;;;26.33;11.77;;;;;;;1.36;100.00;95562.59;10449396;28;20465;-72
2021/12/16 16:38:19;;;;;;;26.20;11.77;;;;;;;1.40;100.00;95579.72;10446328;28;20036;-68
2021/12/16 16:43:27;;;;;;;23.95;11.13;;;;;;;1.42;100.00;95566.28;10446175;28;20029;-70
2021/12/16 16:48:42;;;;;;;;;;;;;;;1.41;100.00;95578.72;10446430;28;20052;-72
2021/12/16 16:53:56;;;;;;;22.45;10.60;;;;;;;1.51;100.00;95567.78;10463302;28;19916;-71
2021/12/16 16:59:04;;;;;;;22.85;11.35;;;;;;;1.51;100.00;95563.28;10463025;28;20040;-72
2021/12/16 17:04:09;;;;;;;24.83;10.88;;;;;;;1.69;100.00;95568.06;10445218;28;20035;-70
2021/12/16 17:09:10;;;;;;;26.05;11.85;;;;;;;1.77;100.00;95567.06;10428820;28;20044;-69
2021/12/16 17:14:19;;;;;;;28.42;12.18;;;;;;;1.80;100.00;95555.25;10428789;28;20053;-68
2021/12/16 17:19:20;;;;;;;19.83;9.80;;;;;;;1.51;100.00;95549.22;10445137;28;20032;-68
2021/12/16 17:24:24;;;;;;;23.58;10.55;;;;;;;1.47;100.00;95543.50;10444540;28;20048;-69
2021/12/16 17:29:39;;;;;;;22.02;9.68;;;;;;;1.33;100.00;95547.09;10445024;28;20532;-72
2021/12/16 17:35:06;;;;;;;18.10;9.40;;;;;;;1.54;100.00;95543.53;10444868;28;20128;-70
2021/12/16 17:40:15;;;;;;;17.50;9.15;;;;;;;1.51;100.00;95539.44;10445626;28;20120;-71
2021/12/16 17:45:18;;;;;;;;;;;;;;;1.60;100.00;95553.34;10444623;28;20032;-69
2021/12/16 17:50:33;;;;;;;22.23;8.80;;;;;;;1.58;100.00;95547.44;10443807;28;19908;-70
2021/12/16 17:55:38;;;;;;;23.85;10.05;;;;;;;1.65;100.00;95550.91;10417617;28;20116;-70
2021/12/16 18:00:44;;;;;;;22.88;9.65;;;;;;;1.67;100.00;95558.66;10410315;28;20139;-68
2021/12/16 18:05:51;;;;;;;17.13;7.75;;;;;;;1.55;100.00;95563.72;10443008;28;20090;-69
2021/12/16 18:10:51;;;;;;;24.15;8.93;;;;;;;1.56;100.00;95553.94;10443067;28;20476;-73
2021/12/16 18:15:52;;;;;;;16.70;8.25;;;;;;;1.40;100.00;95547.94;10425613;28;20060;-71
2021/12/16 18:20:53;;;;;;;18.88;10.00;;;;;;;1.12;100.00;95555.94;10443728;28;20056;-70
2021/12/16 18:25:57;;;;;;;15.30;8.45;;;;;;;1.21;100.00;95557.38;10442494;28;20480;-70
2021/12/16 18:31:03;;;;;;;17.60;9.60;;;;;;;1.36;100.00;95549.34;10425189;28;20094;-69
2021/12/16 18:36:09;;;;;;;21.88;9.70;;;;;;;1.46;100.00;95546.34;10425523;28;20088;-73
2021/12/16 18:41:15;;;;;;;21.50;10.52;;;;;;;1.39;100.00;95537.53;10442093;28;20025;-72
2021/12/16 18:46:19;;;;;;;24.70;10.52;;;;;;;1.22;100.00;95534.41;10441393;28;20083;-73
2021/12/16 18:51:46;;;;;;;24.15;10.07;;;;;;;0.98;100.00;95523.25;10441537;28;20027;-72
2021/12/16 18:56:48;;;;;;;21.98;10.82;;;;;;;1.13;100.00;95544.31;10442087;28;20047;-73
2021/12/16 19:01:56;;;;;;;26.73;12.40;;;;;;;1.26;100.00;95559.47;10441254;28;20025;-72
2021/12/16 19:07:00;;;;;;;24.23;11.75;;;;;;;1.40;100.00;95553.25;10441258;28;20025;-69
2021/12/16 19:12:07;;;;;;;27.10;12.95;;;;;;;1.42;100.00;95567.09;10424796;28;20436;-77
2021/12/16 19:17:08;;;;;;;28.75;13.85;;;;;;;1.58;100.00;95562.47;10437480;28;20025;-73
2021/12/16 19:22:12;;;;;;;23.58;11.27;;;;;;;1.49;100.00;95554.72;10437155;28;20032;-72
2021/12/16 19:27:16;;;;;;;24.23;12.65;;;;;;;1.38;100.00;95559.75;10421637;28;20094;-75
2021/12/16 19:32:17;;;;;;;19.58;10.27;;;;;;;1.19;100.00;95554.94;10438498;28;20056;-72
2021/12/16 19:37:18;;;;;;;19.08;9.90;;;;;;;1.26;100.00;95559.47;10440539;28;20074;-75
2021/12/16 19:42:18;;;;;;;23.88;9.98;;;;;;;1.09;100.00;95551.84;10439900;28;20498;-74
2021/12/16 19:47:20;;;;;;;26.60;11.38;;;;;;;1.08;100.00;95563.41;10445977;28;20021;-76
2021/12/16 19:52:21;;;;;;;22.33;10.38;;;;;;;1.06;100.00;95561.97;10429916;28;20147;-73
2021/12/16 19:57:22;;;;;;;22.98;10.25;;;;;;;1.11;100.00;95554.28;10614765;22;20053;-74
2021/12/16 20:02:23;;;;;;;24.13;11.43;;;;;;;1.22;100.00;95561.69;10472148;28;20029;-69
2021/12/16 20:07:24;;;;;;;19.92;10.85;;;;;;;1.22;100.00;95558.22;10500650;28;20497;-71
2021/12/16 20:12:28;;;;;;;26.65;11.10;;;;;;;1.36;100.00;95542.19;10530948;28;20420;-76
2021/12/16 20:17:29;;;;;;;22.52;10.63;;;;;;;1.32;100.00;95537.50;10532091;28;20035;-71
2021/12/16 20:22:32;;;;;;;25.77;11.63;;;;;;;1.51;100.00;95510.28;10505711;28;20093;-71
2021/12/16 20:27:37;;;;;;;28.58;12.82;;;;;;;1.24;100.00;95519.13;10487000;28;20151;-70
2021/12/16 20:32:46;;;;;;;27.98;13.70;;;;;;;1.12;100.00;95506.44;10471341;28;20028;-71
2021/12/16 20:37:48;;;;;;;29.02;14.50;;;;;;;1.04;100.00;95514.53;10487809;28;20024;-79
2021/12/16 20:42:52;;;;;;;25.10;13.10;;;;;;;1.21;100.00;95527.47;10483179;28;20044;-72
2021/12/16 20:47:57;;;;;;;25.70;12.90;;;;;;;1.50;100.00;95524.56;10448036;28;20049;-70
2021/12/16 20:52:57;;;;;;;23.92;11.85;;;;;;;1.65;100.00;95535.03;10458656;28;20489;-73
2021/12/16 20:58:03;;;;;;;22.95;13.13;;;;;;;1.73;100.00;95549.94;10484896;28;20048;-73
2021/12/16 21:03:05;;;;;;;26.70;11.90;;;;;;;1.84;100.00;95545.88;10470953;28;21063;-73
2021/12/16 21:08:08;;;;;;;26.98;12.60;;;;;;;1.88;100.00;95555.09;10482116;28;20028;-74
2021/12/16 21:13:10;;;;;;;25.23;13.30;;;;;;;1.93;100.00;95562.47;10486646;28;20017;-70
2021/12/16 21:18:15;;;;;;;24.65;12.02;;;;;;;1.95;100.00;95563.06;10471003;28;20414;-71
2021/12/16 21:23:16;;;;;;;25.58;12.07;;;;;;;1.39;100.00;95562.19;10455852;28;20043;-72
2021/12/16 21:28:17;;;;;;;26.00;13.40;;;;;;;1.41;100.00;95557.53;10484624;28;20494;-73
2021/12/16 21:33:24;;;;;;;29.90;11.82;;;;;;;1.35;100.00;95558.28;10485491;28;20035;-70
2021/12/16 21:38:27;;;;;;;27.83;11.77;;;;;;;1.33;100.00;95557.69;10485382;28;20479;-69
2021/12/16 21:43:28;;;;;;;29.45;14.05;;;;;;;1.25;100.00;95561.28;10476437;28;20183;-77
2021/12/16 21:48:29;;;;;;;25.85;12.32;;;;;;;1.28;100.00;95546.84;10461544;28;20048;-71
2021/12/16 21:53:30;;;;;;;29.17;13.25;;;;;;;1.23;100.00;95525.41;10536499;22;20068;-72
2021/12/16 21:58:33;;;;;;;26.15;13.23;;;;;;;1.08;100.00;95518.41;10484037;28;20024;-72
2021/12/16 22:03:38;;;;;;;22.27;11.10;;;;;;;1.12;100.00;95513.56;10467087;28;20032;-70
2021/12/16 22:08:39;;;;;;;30.55;12.27;;;;;;;1.12;100.00;95517.03;10483520;28;20657;-72
2021/12/16 22:13:41;;;;;;;26.90;12.23;;;;;;;1.07;100.00;95511.47;10484554;28;20043;-71
2021/12/16 22:18:45;;;;;;;36.85;13.27;;;;;;;1.03;100.00;95499.66;10469933;28;20477;-69
2021/12/16 22:23:46;;;;;;;26.40;11.75;;;;;;;1.29;100.00;95500.81;10425491;28;20444;-70
2021/12/16 22:28:50;;;;;;;26.08;12.15;;;;;;;1.49;100.00;95501.75;10425493;28;20032;-70
2021/12/16 22:33:55;;;;;;;28.60;11.43;;;;;;;1.45;100.00;95503.16;10442640;28;20445;-72
2021/12/16 22:38:55;;;;;;;28.60;11.70;;;;;;;1.64;100.00;95506.06;10442265;28;20109;-71
2021/12/16 22:43:56;;;;;;;27.20;12.07;;;;;;;1.61;100.00;95501.19;10464494;28;20035;-70
2021/12/16 22:48:56;;;;;;;29.08;12.75;;;;;;;1.57;100.00;95499.94;10524549;28;20028;-75
2021/12/16 22:53:57;;;;;;;31.02;12.65;;;;;;;1.51;100.00;95491.75;10507447;28;20542;-68
2021/12/16 22:58:58;;;;;;;26.45;13.52;;;;;;;1.42;100.00;95500.88;10523808;28;20605;-75
2021/12/16 23:03:58;;;;;;;27.30;12.05;;;;;;;1.30;100.00;95489.22;10524013;28;20500;-70
2021/12/16 23:08:59;;;;;;;26.73;13.73;;;;;;;1.07;100.00;95484.19;10526215;28;20023;-71
2021/12/16 23:14:01;;;;;;;22.63;10.38;;;;;;;0.95;100.00;95491.84;10467000;28;20021;-69
2021/12/16 23:24:23;;;;;;;25.23;11.82;;;;;;;0.99;100.00;95477.22;10444289;28;20036;-68
2021/12/16 23:29:24;;;;;;;20.55;9.68;;;;;;;0.96;100.00;95482.91;10443332;28;20430;-72
2021/12/16 23:34:25;;;;;;;28.17;11.13;;;;;;;1.00;100.00;95473.56;10440542;28;20029;-73
2021/12/16 23:39:28;;;;;;;21.38;9.73;;;;;;;0.94;100.00;95484.94;10440199;28;20036;-73
2021/12/16 23:55:06;;;;;;;21.67;10.63;;;;;;;0.77;100.00;95455.34;10524918;28;20048;-70
